sensor_id;sensor_type;location;lat;lon;timestamp;pressure;altitude;pressure_sealevel;temperature;humidity
78206;BME280;67480;48.920;12.880;2024-03-07T00:02:09;97304.41;;;7.43;60.37
78206;BME280;67480;48.920;12.880;2024-03-07T00:04:39;97309.00;;;7.41;59.35
78206;BME280;67480;48.920;12.880;2024-03-07T00:07:08;97298.56;;;7.41;59.75
78206;BME280;67480;48.920;12.880;2024-03-07T00:09:57;97290.13;;;7.39;59.74
78206;BME280;67480;48.920;12.880;2024-03-07T00:12:24;97298.13;;;7.38;59.65
78206;BME280;67480;48.920;12.880;2024-03-07T00:15:11;97301.53;;;7.38;59.19
78206;BME280;67480;48.920;12.880;2024-03-07T00:17:38;97294.09;;;7.35;59.38
78206;BME280;67480;48.920;12.880;2024-03-07T00:20:10;97295.13;;;7.34;59.38
78206;BME280;67480;48.920;12.880;2024-03-07T00:22:44;97294.09;;;7.35;59.69
78206;BME280;67480;48.920;12.880;2024-03-07T00:25:30;97282.66;;;7.36;60.59
78206;BME280;67480;48.920;12.880;2024-03-07T00:28:09;97285.88;;;7.32;58.59
78206;BME280;67480;48.920;12.880;2024-03-07T00:30:35;97284.06;;;7.32;59.35
78206;BME280;67480;48.920;12.880;2024-03-07T00:33:03;97289.06;;;7.34;59.87
78206;BME280;67480;48.920;12.880;2024-03-07T00:35:32;97283.44;;;7.30;59.43
78206;BME280;67480;48.920;12.880;2024-03-07T00:38:16;97277.59;;;7.28;59.52
78206;BME280;67480;48.920;12.880;2024-03-07T00:40:42;97277.59;;;7.28;59.64
78206;BME280;67480;48.920;12.880;2024-03-07T00:43:09;97280.41;;;7.27;59.64
78206;BME280;67480;48.920;12.880;2024-03-07T00:45:35;97279.41;;;7.28;59.40
78206;BME280;67480;48.920;12.880;2024-03-07T00:48:24;97282.81;;;7.28;59.35
78206;BME280;67480;48.920;12.880;2024-03-07T00:50:55;97273.56;;;7.26;59.69
78206;BME280;67480;48.920;12.880;2024-03-07T00:53:23;97276.56;;;7.22;59.12
78206;BME280;67480;48.920;12.880;2024-03-07T00:55:52;97269.56;;;7.23;58.85
78206;BME280;67480;48.920;12.880;2024-03-07T00:58:23;97271.53;;;7.21;59.72
78206;BME280;67480;48.920;12.880;2024-03-07T01:00:57;97269.13;;;7.19;59.46
78206;BME280;67480;48.920;12.880;2024-03-07T01:03:33;97273.09;;;7.15;58.93
78206;BME280;67480;48.920;12.880;2024-03-07T01:06:05;97271.69;;;7.13;59.11
78206;BME280;67480;48.920;12.880;2024-03-07T01:08:56;97276.91;;;7.13;59.65
78206;BME280;67480;48.920;12.880;2024-03-07T01:11:21;97265.84;;;7.11;59.61
78206;BME280;67480;48.920;12.880;2024-03-07T01:13:47;97277.28;;;7.10;60.13
78206;BME280;67480;48.920;12.880;2024-03-07T01:16:13;97267.81;;;7.09;59.98
78206;BME280;67480;48.920;12.880;2024-03-07T01:18:59;97270.63;;;7.07;60.31
78206;BME280;67480;48.920;12.880;2024-03-07T01:21:25;97283.84;;;7.06;60.31
78206;BME280;67480;48.920;12.880;2024-03-07T01:23:56;97274.59;;;7.03;60.33
78206;BME280;67480;48.920;12.880;2024-03-07T01:26:28;97278.19;;;7.02;60.42
78206;BME280;67480;48.920;12.880;2024-03-07T01:28:55;97284.41;;;7.01;60.95
78206;BME280;67480;48.920;12.880;2024-03-07T01:31:22;97281.59;;;7.03;61.33
78206;BME280;67480;48.920;12.880;2024-03-07T01:33:51;97287.19;;;6.99;60.24
78206;BME280;67480;48.920;12.880;2024-03-07T01:36:53;97296.03;;;6.98;60.32
78206;BME280;67480;48.920;12.880;2024-03-07T01:39:24;97285.72;;;6.90;60.71
78206;BME280;67480;48.920;12.880;2024-03-07T01:41:54;97285.47;;;6.85;60.52
78206;BME280;67480;48.920;12.880;2024-03-07T01:44:32;97283.63;;;6.79;60.24
78206;BME280;67480;48.920;12.880;2024-03-07T01:46:59;97280.38;;;6.77;61.45
78206;BME280;67480;48.920;12.880;2024-03-07T01:49:30;97285.16;;;6.73;61.17
78206;BME280;67480;48.920;12.880;2024-03-07T01:51:59;97278.69;;;6.69;60.98
78206;BME280;67480;48.920;12.880;2024-03-07T01:54:27;97283.09;;;6.69;60.54
78206;BME280;67480;48.920;12.880;2024-03-07T01:57:22;97286.72;;;6.68;61.55
78206;BME280;67480;48.920;12.880;2024-03-07T02:00:10;97267.22;;;6.64;61.46
78206;BME280;67480;48.920;12.880;2024-03-07T02:02:37;97266.63;;;6.62;61.20
78206;BME280;67480;48.920;12.880;2024-03-07T02:05:23;97269.22;;;6.62;61.09
78206;BME280;67480;48.920;12.880;2024-03-07T02:07:51;97264.94;;;6.54;60.44
78206;BME280;67480;48.920;12.880;2024-03-07T02:10:18;97259.69;;;6.47;59.93
78206;BME280;67480;48.920;12.880;2024-03-07T02:12:44;97262.72;;;6.36;60.24
78206;BME280;67480;48.920;12.880;2024-03-07T02:15:10;97252.06;;;6.31;61.35
78206;BME280;67480;48.920;12.880;2024-03-07T02:17:48;97259.94;;;6.38;61.81
78206;BME280;67480;48.920;12.880;2024-03-07T02:20:17;97254.72;;;6.38;61.33
78206;BME280;67480;48.920;12.880;2024-03-07T02:22:48;97255.91;;;6.35;61.25
78206;BME280;67480;48.920;12.880;2024-03-07T02:25:13;97266.94;;;6.37;60.92
78206;BME280;67480;48.920;12.880;2024-03-07T02:27:41;97255.53;;;6.38;60.89
78206;BME280;67480;48.920;12.880;2024-03-07T02:30:18;97261.09;;;6.35;61.33
78206;BME280;67480;48.920;12.880;2024-03-07T02:33:05;97255.47;;;6.31;60.82
78206;BME280;67480;48.920;12.880;2024-03-07T02:35:35;97252.06;;;6.31;60.91
78206;BME280;67480;48.920;12.880;2024-03-07T02:38:08;97250.63;;;6.28;61.27
78206;BME280;67480;48.920;12.880;2024-03-07T02:40:34;97260.03;;;6.29;60.32
78206;BME280;67480;48.920;12.880;2024-03-07T02:43:00;97249.47;;;6.31;60.50
78206;BME280;67480;48.920;12.880;2024-03-07T02:45:28;97251.88;;;6.32;61.03
78206;BME280;67480;48.920;12.880;2024-03-07T02:47:55;97250.25;;;6.31;60.66
78206;BME280;67480;48.920;12.880;2024-03-07T02:50:36;97249.38;;;6.24;60.28
78206;BME280;67480;48.920;12.880;2024-03-07T02:53:03;97248.19;;;6.27;61.25
78206;BME280;67480;48.920;12.880;2024-03-07T02:55:29;97245.38;;;6.22;60.53
78206;BME280;67480;48.920;12.880;2024-03-07T02:57:56;97255.78;;;6.22;60.78
78206;BME280;67480;48.920;12.880;2024-03-07T03:00:25;97250.91;;;6.19;60.28
78206;BME280;67480;48.920;12.880;2024-03-07T03:02:56;97250.31;;;6.17;60.26
78206;BME280;67480;48.920;12.880;2024-03-07T03:05:22;97250.31;;;6.17;60.63
78206;BME280;67480;48.920;12.880;2024-03-07T03:07:50;97248.88;;;6.14;60.62
78206;BME280;67480;48.920;12.880;2024-03-07T03:10:28;97255.25;;;6.11;61.05
78206;BME280;67480;48.920;12.880;2024-03-07T03:13:05;97253.66;;;6.10;60.51
78206;BME280;67480;48.920;12.880;2024-03-07T03:15:32;97254.97;;;6.06;61.05
78206;BME280;67480;48.920;12.880;2024-03-07T03:17:59;97256.94;;;6.04;60.58
78206;BME280;67480;48.920;12.880;2024-03-07T03:20:26;97254.72;;;6.01;60.36
78206;BME280;67480;48.920;12.880;2024-03-07T03:23:05;97253.91;;;6.01;60.64
78206;BME280;67480;48.920;12.880;2024-03-07T03:25:32;97248.28;;;5.97;60.38
78206;BME280;67480;48.920;12.880;2024-03-07T03:28:01;97247.38;;;5.90;60.55
78206;BME280;67480;48.920;12.880;2024-03-07T03:30:29;97247.75;;;5.87;60.45
78206;BME280;67480;48.920;12.880;2024-03-07T03:33:07;97258.16;;;5.87;61.01
78206;BME280;67480;48.920;12.880;2024-03-07T03:35:34;97252.16;;;5.86;60.78
78206;BME280;67480;48.920;12.880;2024-03-07T03:38:00;97256.19;;;5.89;61.36
78206;BME280;67480;48.920;12.880;2024-03-07T03:40:26;97255.09;;;5.83;60.74
78206;BME280;67480;48.920;12.880;2024-03-07T03:42:53;97260.13;;;5.85;61.53
78206;BME280;67480;48.920;12.880;2024-03-07T03:45:22;97257.72;;;5.83;61.17
78206;BME280;67480;48.920;12.880;2024-03-07T03:47:50;97255.53;;;5.87;60.72
78206;BME280;67480;48.920;12.880;2024-03-07T03:50:16;97252.31;;;5.85;61.48
78206;BME280;67480;48.920;12.880;2024-03-07T03:52:43;97253.50;;;5.82;61.31
78206;BME280;67480;48.920;12.880;2024-03-07T03:55:09;97247.47;;;5.82;61.17
78206;BME280;67480;48.920;12.880;2024-03-07T03:57:35;97243.28;;;5.81;60.51
78206;BME280;67480;48.920;12.880;2024-03-07T04:00:04;97246.88;;;5.80;61.45
78206;BME280;67480;48.920;12.880;2024-03-07T04:03:05;97249.84;;;5.77;61.06
78206;BME280;67480;48.920;12.880;2024-03-07T04:05:52;97245.25;;;5.79;61.52
78206;BME280;67480;48.920;12.880;2024-03-07T04:08:18;97254.31;;;5.83;61.35
78206;BME280;67480;48.920;12.880;2024-03-07T04:10:45;97246.50;;;5.83;61.69
78206;BME280;67480;48.920;12.880;2024-03-07T04:13:11;97253.66;;;5.81;61.35
78206;BME280;67480;48.920;12.880;2024-03-07T04:15:40;97241.31;;;5.83;61.25
78206;BME280;67480;48.920;12.880;2024-03-07T04:18:09;97243.09;;;5.82;61.50
78206;BME280;67480;48.920;12.880;2024-03-07T04:20:36;97243.28;;;5.81;61.59
78206;BME280;67480;48.920;12.880;2024-03-07T04:23:02;97248.47;;;5.81;61.55
78206;BME280;67480;48.920;12.880;2024-03-07T04:25:30;97246.25;;;5.78;61.92
78206;BME280;67480;48.920;12.880;2024-03-07T04:27:56;97242.03;;;5.77;61.74
78206;BME280;67480;48.920;12.880;2024-03-07T04:30:40;97250.81;;;5.76;61.51
78206;BME280;67480;48.920;12.880;2024-03-07T04:33:07;97243.38;;;5.73;61.49
78206;BME280;67480;48.920;12.880;2024-03-07T04:35:52;97245.97;;;5.73;62.33
78206;BME280;67480;48.920;12.880;2024-03-07T04:38:42;97245.16;;;5.72;62.01
78206;BME280;67480;48.920;12.880;2024-03-07T04:41:13;97256.38;;;5.73;62.35
78206;BME280;67480;48.920;12.880;2024-03-07T04:43:41;97242.41;;;5.74;62.31
78206;BME280;67480;48.920;12.880;2024-03-07T04:46:11;97242.03;;;5.77;62.14
78206;BME280;67480;48.920;12.880;2024-03-07T04:48:37;97249.63;;;5.78;62.37
78206;BME280;67480;48.920;12.880;2024-03-07T04:51:03;97248.03;;;5.77;62.51
78206;BME280;67480;48.920;12.880;2024-03-07T04:53:30;97251.97;;;5.73;62.25
78206;BME280;67480;48.920;12.880;2024-03-07T04:55:58;97246.41;;;5.76;62.82
78206;BME280;67480;48.920;12.880;2024-03-07T04:58:24;97250.81;;;5.76;62.23
78206;BME280;67480;48.920;12.880;2024-03-07T05:00:55;97256.00;;;5.76;62.78
78206;BME280;67480;48.920;12.880;2024-03-07T05:03:27;97264.44;;;5.78;62.33
78206;BME280;67480;48.920;12.880;2024-03-07T05:05:53;97254.03;;;5.78;62.63
78206;BME280;67480;48.920;12.880;2024-03-07T05:08:24;97258.00;;;5.74;62.33
78206;BME280;67480;48.920;12.880;2024-03-07T05:10:52;97267.41;;;5.75;63.05
78206;BME280;67480;48.920;12.880;2024-03-07T05:13:18;97268.41;;;5.74;62.69
78206;BME280;67480;48.920;12.880;2024-03-07T05:15:44;97274.41;;;5.74;62.73
78206;BME280;67480;48.920;12.880;2024-03-07T05:18:10;97263.19;;;5.74;62.64
78206;BME280;67480;48.920;12.880;2024-03-07T05:20:37;97271.97;;;5.73;62.97
78206;BME280;67480;48.920;12.880;2024-03-07T05:23:03;97269.38;;;5.73;62.95
78206;BME280;67480;48.920;12.880;2024-03-07T05:25:30;97273.13;;;5.70;63.18
78206;BME280;67480;48.920;12.880;2024-03-07T05:27:56;97270.72;;;5.69;63.00
78206;BME280;67480;48.920;12.880;2024-03-07T05:30:22;97272.34;;;5.70;63.03
78206;BME280;67480;48.920;12.880;2024-03-07T05:32:51;97273.13;;;5.70;63.52
78206;BME280;67480;48.920;12.880;2024-03-07T05:35:19;97273.94;;;5.71;63.22
78206;BME280;67480;48.920;12.880;2024-03-07T05:38:06;97266.31;;;5.69;62.97
78206;BME280;67480;48.920;12.880;2024-03-07T05:40:32;97276.09;;;5.67;63.44
78206;BME280;67480;48.920;12.880;2024-03-07T05:43:00;97275.13;;;5.68;63.79
78206;BME280;67480;48.920;12.880;2024-03-07T05:45:26;97270.72;;;5.69;63.27
78206;BME280;67480;48.920;12.880;2024-03-07T05:47:54;97279.13;;;5.71;63.93
78206;BME280;67480;48.920;12.880;2024-03-07T05:50:19;97276.38;;;5.72;64.06
78206;BME280;67480;48.920;12.880;2024-03-07T05:52:45;97281.13;;;5.69;63.95
78206;BME280;67480;48.920;12.880;2024-03-07T05:55:14;97287.13;;;5.69;63.87
78206;BME280;67480;48.920;12.880;2024-03-07T05:57:41;97284.34;;;5.71;64.02
78206;BME280;67480;48.920;12.880;2024-03-07T06:00:08;97281.13;;;5.69;63.86
78206;BME280;67480;48.920;12.880;2024-03-07T06:02:36;97280.50;;;5.66;64.06
78206;BME280;67480;48.920;12.880;2024-03-07T06:05:03;97290.53;;;5.70;64.20
78206;BME280;67480;48.920;12.880;2024-03-07T06:07:29;97280.13;;;5.70;64.36
78206;BME280;67480;48.920;12.880;2024-03-07T06:09:59;97285.16;;;5.71;64.24
78206;BME280;67480;48.920;12.880;2024-03-07T06:12:26;97279.50;;;5.67;64.28
78206;BME280;67480;48.920;12.880;2024-03-07T06:14:51;97284.69;;;5.67;64.47
78206;BME280;67480;48.920;12.880;2024-03-07T06:17:18;97284.91;;;5.66;64.78
78206;BME280;67480;48.920;12.880;2024-03-07T06:19:51;97296.53;;;5.70;64.42
78206;BME280;67480;48.920;12.880;2024-03-07T06:22:19;97290.72;;;5.68;64.67
78206;BME280;67480;48.920;12.880;2024-03-07T06:24:54;97291.53;;;5.69;64.66
78206;BME280;67480;48.920;12.880;2024-03-07T06:27:23;97292.34;;;5.69;64.57
78206;BME280;67480;48.920;12.880;2024-03-07T06:30:05;97286.34;;;5.69;64.93
78206;BME280;67480;48.920;12.880;2024-03-07T06:32:35;97283.72;;;5.69;65.12
78206;BME280;67480;48.920;12.880;2024-03-07T06:35:17;97291.53;;;5.69;64.78
78206;BME280;67480;48.920;12.880;2024-03-07T06:37:50;97288.28;;;5.66;65.02
78206;BME280;67480;48.920;12.880;2024-03-07T06:40:28;97283.72;;;5.69;65.04
78206;BME280;67480;48.920;12.880;2024-03-07T06:42:53;97290.72;;;5.68;65.30
78206;BME280;67480;48.920;12.880;2024-03-07T06:45:22;97285.34;;;5.70;65.19
78206;BME280;67480;48.920;12.880;2024-03-07T06:47:51;97284.34;;;5.71;64.56
78206;BME280;67480;48.920;12.880;2024-03-07T06:50:20;97289.72;;;5.69;65.06
78206;BME280;67480;48.920;12.880;2024-03-07T06:52:54;97287.22;;;5.76;65.00
78206;BME280;67480;48.920;12.880;2024-03-07T06:55:21;97284.00;;;5.74;65.17
78206;BME280;67480;48.920;12.880;2024-03-07T06:57:50;97284.00;;;5.74;64.45
78206;BME280;67480;48.920;12.880;2024-03-07T07:00:22;97290.19;;;5.73;64.51
78206;BME280;67480;48.920;12.880;2024-03-07T07:02:51;97293.41;;;5.75;64.12
78206;BME280;67480;48.920;12.880;2024-03-07T07:05:18;97293.41;;;5.75;64.36
78206;BME280;67480;48.920;12.880;2024-03-07T07:07:44;97292.41;;;5.76;64.54
78206;BME280;67480;48.920;12.880;2024-03-07T07:10:13;97292.84;;;5.79;64.42
78206;BME280;67480;48.920;12.880;2024-03-07T07:12:42;97299.84;;;5.79;64.64
78206;BME280;67480;48.920;12.880;2024-03-07T07:15:09;97296.28;;;5.80;64.65
78206;BME280;67480;48.920;12.880;2024-03-07T07:17:36;97302.09;;;5.82;64.69
78206;BME280;67480;48.920;12.880;2024-03-07T07:20:25;97300.50;;;5.81;63.97
78206;BME280;67480;48.920;12.880;2024-03-07T07:22:50;97296.88;;;5.82;64.05
78206;BME280;67480;48.920;12.880;2024-03-07T07:25:20;97293.69;;;5.80;64.16
78206;BME280;67480;48.920;12.880;2024-03-07T07:27:51;97300.50;;;5.81;64.66
78206;BME280;67480;48.920;12.880;2024-03-07T07:30:22;97298.53;;;5.83;64.87
78206;BME280;67480;48.920;12.880;2024-03-07T07:32:49;97300.75;;;5.86;64.75
78206;BME280;67480;48.920;12.880;2024-03-07T07:35:18;97300.75;;;5.86;64.94
78206;BME280;67480;48.920;12.880;2024-03-07T07:37:48;97292.97;;;5.86;64.58
78206;BME280;67480;48.920;12.880;2024-03-07T07:40:18;97304.16;;;5.86;65.11
78206;BME280;67480;48.920;12.880;2024-03-07T07:42:44;97300.56;;;5.87;64.66
78206;BME280;67480;48.920;12.880;2024-03-07T07:45:11;97304.59;;;5.90;64.67
78206;BME280;67480;48.920;12.880;2024-03-07T07:47:49;97307.84;;;5.92;64.61
78206;BME280;67480;48.920;12.880;2024-03-07T07:50:16;97306.22;;;5.91;64.72
78206;BME280;67480;48.920;12.880;2024-03-07T07:55:11;97309.44;;;5.93;63.88
78206;BME280;67480;48.920;12.880;2024-03-07T07:57:45;97310.06;;;5.95;64.44
78206;BME280;67480;48.920;12.880;2024-03-07T08:00:13;97300.03;;;5.92;63.95
78206;BME280;67480;48.920;12.880;2024-03-07T08:02:46;97305.69;;;5.96;63.92
78206;BME280;67480;48.920;12.880;2024-03-07T08:05:12;97305.50;;;5.97;63.92
78206;BME280;67480;48.920;12.880;2024-03-07T08:07:43;97293.94;;;6.00;63.72
78206;BME280;67480;48.920;12.880;2024-03-07T08:10:08;97305.94;;;6.01;63.78
78206;BME280;67480;48.920;12.880;2024-03-07T08:12:34;97300.47;;;5.96;63.40
78206;BME280;67480;48.920;12.880;2024-03-07T08:15:02;97303.88;;;5.96;63.29
78206;BME280;67480;48.920;12.880;2024-03-07T08:17:28;97297.72;;;5.97;63.69
78206;BME280;67480;48.920;12.880;2024-03-07T08:19:53;97309.56;;;6.00;63.42
78206;BME280;67480;48.920;12.880;2024-03-07T08:22:18;97301.53;;;6.01;63.50
78206;BME280;67480;48.920;12.880;2024-03-07T08:24:44;97290.16;;;6.02;63.04
78206;BME280;67480;48.920;12.880;2024-03-07T08:27:10;97295.38;;;6.02;63.08
78206;BME280;67480;48.920;12.880;2024-03-07T08:29:36;97303.34;;;6.01;63.19
78206;BME280;67480;48.920;12.880;2024-03-07T08:32:01;97299.13;;;6.00;63.09
78206;BME280;67480;48.920;12.880;2024-03-07T08:34:28;97302.34;;;6.02;63.31
78206;BME280;67480;48.920;12.880;2024-03-07T08:36:53;97292.78;;;6.02;62.73
78206;BME280;67480;48.920;12.880;2024-03-07T08:39:18;97292.78;;;6.02;62.25
78206;BME280;67480;48.920;12.880;2024-03-07T08:41:44;97292.78;;;6.02;63.32
78206;BME280;67480;48.920;12.880;2024-03-07T08:44:11;97293.56;;;6.03;63.09
78206;BME280;67480;48.920;12.880;2024-03-07T08:46:38;97295.63;;;6.07;63.19
78206;BME280;67480;48.920;12.880;2024-03-07T08:49:03;97293.66;;;6.09;63.11
78206;BME280;67480;48.920;12.880;2024-03-07T08:51:30;97304.06;;;6.09;62.80
78206;BME280;67480;48.920;12.880;2024-03-07T08:53:55;97293.66;;;6.09;63.00
78206;BME280;67480;48.920;12.880;2024-03-07T08:56:20;97299.47;;;6.11;63.07
78206;BME280;67480;48.920;12.880;2024-03-07T08:58:47;97298.75;;;6.18;62.54
78206;BME280;67480;48.920;12.880;2024-03-07T09:01:12;97291.31;;;6.15;62.96
78206;BME280;67480;48.920;12.880;2024-03-07T09:03:38;97293.75;;;6.16;62.41
78206;BME280;67480;48.920;12.880;2024-03-07T09:06:03;97290.13;;;6.17;61.85
78206;BME280;67480;48.920;12.880;2024-03-07T09:08:29;97290.94;;;6.18;62.95
78206;BME280;67480;48.920;12.880;2024-03-07T09:10:55;97297.16;;;6.17;62.85
78206;BME280;67480;48.920;12.880;2024-03-07T09:13:21;97290.94;;;6.18;62.64
78206;BME280;67480;48.920;12.880;2024-03-07T09:15:46;97289.13;;;6.18;63.37
78206;BME280;67480;48.920;12.880;2024-03-07T09:18:12;97294.19;;;6.20;63.24
78206;BME280;67480;48.920;12.880;2024-03-07T09:20:38;97282.97;;;6.19;63.09
78206;BME280;67480;48.920;12.880;2024-03-07T09:23:03;97292.38;;;6.20;62.91
78206;BME280;67480;48.920;12.880;2024-03-07T09:25:29;97290.56;;;6.21;63.03
78206;BME280;67480;48.920;12.880;2024-03-07T09:27:58;97281.97;;;6.20;62.81
78206;BME280;67480;48.920;12.880;2024-03-07T09:30:25;97290.22;;;6.24;62.79
78206;BME280;67480;48.920;12.880;2024-03-07T09:32:52;97293.44;;;6.26;63.19
78206;BME280;67480;48.920;12.880;2024-03-07T09:35:20;97281.88;;;6.28;63.23
78206;BME280;67480;48.920;12.880;2024-03-07T09:37:46;97279.06;;;6.30;63.64
78206;BME280;67480;48.920;12.880;2024-03-07T09:40:12;97276.47;;;6.30;63.42
78206;BME280;67480;48.920;12.880;2024-03-07T09:42:47;97277.28;;;6.30;63.13
78206;BME280;67480;48.920;12.880;2024-03-07T09:45:17;97261.72;;;6.37;62.74
78206;BME280;67480;48.920;12.880;2024-03-07T09:47:46;97264.34;;;6.37;62.68
78206;BME280;67480;48.920;12.880;2024-03-07T09:50:19;97265.41;;;6.43;62.39
78206;BME280;67480;48.920;12.880;2024-03-07T09:52:47;97259.06;;;6.45;62.64
78206;BME280;67480;48.920;12.880;2024-03-07T09:55:17;97266.84;;;6.45;63.00
78206;BME280;67480;48.920;12.880;2024-03-07T09:57:46;97262.88;;;6.49;63.30
78206;BME280;67480;48.920;12.880;2024-03-07T10:00:12;97266.13;;;6.51;62.76
78206;BME280;67480;48.920;12.880;2024-03-07T10:02:50;97269.34;;;6.53;62.62
78206;BME280;67480;48.920;12.880;2024-03-07T10:05:18;97267.00;;;6.59;62.90
78206;BME280;67480;48.920;12.880;2024-03-07T10:07:45;97267.81;;;6.59;63.22
78206;BME280;67480;48.920;12.880;2024-03-07T10:10:11;97265.00;;;6.61;60.22
78206;BME280;67480;48.920;12.880;2024-03-07T10:12:38;97264.63;;;6.64;59.81
78206;BME280;67480;48.920;12.880;2024-03-07T10:15:04;97259.63;;;6.62;60.28
78206;BME280;67480;48.920;12.880;2024-03-07T10:17:38;97274.06;;;6.65;60.39
78206;BME280;67480;48.920;12.880;2024-03-07T10:20:04;97262.00;;;6.64;61.01
78206;BME280;67480;48.920;12.880;2024-03-07T10:22:35;97275.03;;;6.64;61.40
78206;BME280;67480;48.920;12.880;2024-03-07T10:25:01;97268.06;;;6.64;60.84
78206;BME280;67480;48.920;12.880;2024-03-07T10:27:28;97256.47;;;6.67;60.58
78206;BME280;67480;48.920;12.880;2024-03-07T10:29:54;97264.06;;;6.68;61.11
78206;BME280;67480;48.920;12.880;2024-03-07T10:32:23;97266.31;;;6.71;61.69
78206;BME280;67480;48.920;12.880;2024-03-07T10:34:56;97269.97;;;6.77;61.10
78206;BME280;67480;48.920;12.880;2024-03-07T10:37:24;97265.38;;;6.79;61.11
78206;BME280;67480;48.920;12.880;2024-03-07T10:39:51;97265.00;;;6.82;60.69
78206;BME280;67480;48.920;12.880;2024-03-07T10:42:17;97260.81;;;6.81;60.55
78206;BME280;67480;48.920;12.880;2024-03-07T10:44:48;97264.38;;;6.80;60.55
78206;BME280;67480;48.920;12.880;2024-03-07T10:47:20;97253.34;;;6.78;60.43
78206;BME280;67480;48.920;12.880;2024-03-07T10:50:19;97260.19;;;6.79;60.61
78206;BME280;67480;48.920;12.880;2024-03-07T10:52:49;97255.97;;;6.78;60.41
78206;BME280;67480;48.920;12.880;2024-03-07T10:55:46;97263.16;;;6.76;60.70
78206;BME280;67480;48.920;12.880;2024-03-07T11:01:04;97258.50;;;6.71;60.42
78206;BME280;67480;48.920;12.880;2024-03-07T11:03:34;97249.50;;;6.74;61.58
78206;BME280;67480;48.920;12.880;2024-03-07T11:06:01;97252.09;;;6.74;61.22
78206;BME280;67480;48.920;12.880;2024-03-07T11:08:34;97258.75;;;6.76;61.07
78206;BME280;67480;48.920;12.880;2024-03-07T11:11:00;97257.56;;;6.79;61.11
78206;BME280;67480;48.920;12.880;2024-03-07T11:13:26;97251.56;;;6.78;61.08
78206;BME280;67480;48.920;12.880;2024-03-07T11:15:52;97248.94;;;6.78;61.05
78206;BME280;67480;48.920;12.880;2024-03-07T11:18:22;97246.78;;;6.82;61.21
78206;BME280;67480;48.920;12.880;2024-03-07T11:20:49;97248.56;;;6.82;60.30
78206;BME280;67480;48.920;12.880;2024-03-07T11:25:49;97241.56;;;6.82;60.37
78206;BME280;67480;48.920;12.880;2024-03-07T11:28:17;97237.94;;;6.83;60.53
78206;BME280;67480;48.920;12.880;2024-03-07T11:30:45;97241.00;;;6.87;60.41
78206;BME280;67480;48.920;12.880;2024-03-07T11:33:11;97234.16;;;6.86;60.77
78206;BME280;67480;48.920;12.880;2024-03-07T11:35:39;97234.97;;;6.86;60.31
78206;BME280;67480;48.920;12.880;2024-03-07T11:38:06;97238.41;;;6.87;59.37
78206;BME280;67480;48.920;12.880;2024-03-07T11:43:00;97227.16;;;6.86;60.29
78206;BME280;67480;48.920;12.880;2024-03-07T11:45:30;97235.59;;;6.88;60.60
78206;BME280;67480;48.920;12.880;2024-03-07T11:47:59;97232.03;;;6.89;59.71
78206;BME280;67480;48.920;12.880;2024-03-07T11:50:41;97228.78;;;6.87;59.28
78206;BME280;67480;48.920;12.880;2024-03-07T11:53:08;97220.16;;;6.87;59.02
78206;BME280;67480;48.920;12.880;2024-03-07T11:55:37;97217.94;;;6.84;58.85
78206;BME280;67480;48.920;12.880;2024-03-07T12:00:42;97217.19;;;6.90;59.89
78206;BME280;67480;48.920;12.880;2024-03-07T12:03:14;97212.41;;;6.93;60.15
78206;BME280;67480;48.920;12.880;2024-03-07T12:05:42;97210.41;;;6.95;59.71
78206;BME280;67480;48.920;12.880;2024-03-07T12:08:10;97211.38;;;6.94;59.87
78206;BME280;67480;48.920;12.880;2024-03-07T12:10:40;97207.44;;;6.98;59.47
78206;BME280;67480;48.920;12.880;2024-03-07T12:13:13;97199.00;;;6.96;60.17
78206;BME280;67480;48.920;12.880;2024-03-07T12:15:42;97205.78;;;6.97;59.98
78206;BME280;67480;48.920;12.880;2024-03-07T12:18:09;97212.44;;;7.00;60.21
78206;BME280;67480;48.920;12.880;2024-03-07T12:20:39;97204.81;;;6.98;60.47
78206;BME280;67480;48.920;12.880;2024-03-07T12:23:06;97202.78;;;6.94;60.40
78206;BME280;67480;48.920;12.880;2024-03-07T12:25:36;97205.00;;;6.97;59.75
78206;BME280;67480;48.920;12.880;2024-03-07T12:28:07;97214.81;;;6.95;60.07
78206;BME280;67480;48.920;12.880;2024-03-07T12:30:50;97206.75;;;6.90;59.97
78206;BME280;67480;48.920;12.880;2024-03-07T12:33:17;97202.53;;;6.89;59.50
78206;BME280;67480;48.920;12.880;2024-03-07T12:35:43;97208.13;;;6.86;59.46
78206;BME280;67480;48.920;12.880;2024-03-07T12:38:10;97202.72;;;6.87;59.57
78206;BME280;67480;48.920;12.880;2024-03-07T12:40:39;97208.50;;;6.83;60.14
78206;BME280;67480;48.920;12.880;2024-03-07T12:43:20;97217.13;;;6.83;60.05
78206;BME280;67480;48.920;12.880;2024-03-07T12:45:52;97207.31;;;6.85;59.76
78206;BME280;67480;48.920;12.880;2024-03-07T12:48:19;97206.53;;;6.85;60.03
78206;BME280;67480;48.920;12.880;2024-03-07T12:50:46;97209.28;;;6.83;59.33
78206;BME280;67480;48.920;12.880;2024-03-07T12:53:15;97213.53;;;6.84;59.29
78206;BME280;67480;48.920;12.880;2024-03-07T12:55:43;97211.06;;;6.76;59.56
78206;BME280;67480;48.920;12.880;2024-03-07T12:58:12;97206.22;;;6.73;59.33
78206;BME280;67480;48.920;12.880;2024-03-07T13:00:38;97206.22;;;6.73;59.90
78206;BME280;67480;48.920;12.880;2024-03-07T13:03:04;97206.66;;;6.76;59.92
78206;BME280;67480;48.920;12.880;2024-03-07T13:05:30;97205.06;;;6.75;59.87
78206;BME280;67480;48.920;12.880;2024-03-07T13:07:55;97209.25;;;6.76;59.87
78206;BME280;67480;48.920;12.880;2024-03-07T13:10:21;97203.63;;;6.73;60.03
78206;BME280;67480;48.920;12.880;2024-03-07T13:12:47;97202.00;;;6.72;60.28
78206;BME280;67480;48.920;12.880;2024-03-07T13:15:15;97204.22;;;6.75;60.65
78206;BME280;67480;48.920;12.880;2024-03-07T13:17:40;97205.22;;;6.74;60.24
78206;BME280;67480;48.920;12.880;2024-03-07T13:20:11;97198.41;;;6.73;60.10
78206;BME280;67480;48.920;12.880;2024-03-07T13:22:39;97194.81;;;6.74;60.42
78206;BME280;67480;48.920;12.880;2024-03-07T13:25:07;97193.00;;;6.74;60.57
78206;BME280;67480;48.920;12.880;2024-03-07T13:27:40;97183.38;;;6.75;60.62